createdAt,value
2019-05-03T00:00:34.046Z,1.4
2019-05-03T00:01:22.592Z,1.8
2019-05-03T00:02:34.076Z,2
2019-05-03T00:03:46.019Z,1.6
2019-05-03T00:04:23.160Z,1.3
2019-05-03T00:05:34.128Z,1.5
2019-05-03T00:06:46.088Z,1.8
2019-05-03T00:07:23.158Z,2.1
2019-05-03T00:08:34.157Z,1.7
2019-05-03T00:09:12.125Z,2.1
2019-05-03T00:10:23.163Z,1.5
2019-05-03T00:11:22.908Z,1.4
2019-05-03T00:11:58.059Z,1.3
2019-05-03T00:12:33.991Z,1.3
2019-05-03T00:13:46.052Z,1.1
2019-05-03T00:14:22.594Z,1.1
2019-05-03T00:14:58.001Z,1.6
2019-05-03T00:16:12.083Z,1.1
2019-05-03T00:16:46.105Z,1.2
2019-05-03T00:17:58.112Z,1.5
2019-05-03T00:19:10.019Z,2.3
2019-05-03T00:19:45.997Z,2.2
2019-05-03T00:20:58.062Z,1.8
2019-05-03T00:22:22.549Z,0.9
2019-05-03T00:22:57.988Z,1
2019-05-03T00:24:12.148Z,1.3
2019-05-03T00:24:46.008Z,1.3
2019-05-03T00:25:58.077Z,1.5
2019-05-03T00:27:10.016Z,1.7
2019-05-03T00:27:58.034Z,1
2019-05-03T00:28:46.019Z,1
2019-05-03T00:29:34.029Z,1
2019-05-03T00:30:11.960Z,0.9
2019-05-03T00:30:46.089Z,0.8
2019-05-03T00:32:22.543Z,1.1
2019-05-03T00:33:12.267Z,1.1
2019-05-03T00:33:46.043Z,1.3
2019-05-03T00:34:22.660Z,1.1
2019-05-03T00:35:34.095Z,1.2
2019-05-03T00:36:12.158Z,0.9
2019-05-03T00:37:22.976Z,0.8
2019-05-03T00:38:34.063Z,0.9
2019-05-03T00:39:22.502Z,1
2019-05-03T00:40:34.083Z,1.1
2019-05-03T00:41:46.046Z,1.5
2019-05-03T00:42:23.302Z,1.1
2019-05-03T00:43:34.146Z,1
2019-05-03T00:44:12.046Z,1.2
2019-05-03T00:45:22.906Z,1.4
2019-05-03T00:46:34.033Z,1.7
2019-05-03T00:47:46.091Z,1.4
2019-05-03T00:48:22.841Z,1.5
2019-05-03T00:49:33.983Z,0.8
2019-05-03T00:50:12.300Z,0.8
2019-05-03T00:51:23.403Z,1
2019-05-03T00:52:34.069Z,1.1
2019-05-03T00:53:12.191Z,1.5
2019-05-03T00:54:23.122Z,1.8
2019-05-03T00:55:34.020Z,1.5
2019-05-03T00:56:45.979Z,1.5
2019-05-03T00:57:23.582Z,1.3
2019-05-03T00:58:46.043Z,1.2
2019-05-03T00:59:23.036Z,1.1
2019-05-03T01:00:34.062Z,1.8
2019-05-03T01:01:12.080Z,1.5
2019-05-03T01:02:23.173Z,0.8
2019-05-03T01:03:34.051Z,1.3
2019-05-03T01:04:12.088Z,1.7
2019-05-03T01:05:23.501Z,1.6
2019-05-03T01:05:58.054Z,1.4
2019-05-03T01:06:34.017Z,1.3
2019-05-03T01:07:12.196Z,1.8
2019-05-03T01:08:22.907Z,1.2
2019-05-03T01:09:34.088Z,1.9
2019-05-03T01:10:12.079Z,1.7
2019-05-03T01:11:23.077Z,1.7
2019-05-03T01:11:58.076Z,1.7
2019-05-03T01:12:34.035Z,1.8
2019-05-03T01:13:09.993Z,2.1
2019-05-03T01:14:23.426Z,1.7
2019-05-03T01:14:58.050Z,1.5
2019-05-03T01:16:12.299Z,1.7
2019-05-03T01:17:23.243Z,1.2
2019-05-03T01:18:10.029Z,1.6
2019-05-03T01:19:23.537Z,1.3
2019-05-03T01:19:58.060Z,1.2
2019-05-03T01:21:23.462Z,1.1
2019-05-03T01:22:12.146Z,1
2019-05-03T01:23:33.998Z,0.8
2019-05-03T01:24:09.962Z,0.6
2019-05-03T01:25:35.933Z,1
2019-05-03T01:27:33.980Z,1.4
2019-05-03T01:28:09.967Z,1.5
2019-05-03T01:28:46.039Z,1.5
2019-05-03T01:29:23.628Z,1.2
2019-05-03T01:30:33.956Z,1.5
2019-05-03T01:31:46.035Z,1.4
2019-05-03T01:33:45.953Z,1.8
2019-05-03T01:34:58.014Z,1.4
2019-05-03T01:35:33.979Z,1.2
2019-05-03T01:36:46.112Z,1.4
2019-05-03T01:37:23.488Z,1.9
2019-05-03T01:38:33.974Z,1.2
2019-05-03T01:39:46.029Z,1.4
2019-05-03T01:40:58.065Z,0.8
2019-05-03T01:41:34.029Z,1
2019-05-03T01:42:45.993Z,1.3
2019-05-03T01:44:33.990Z,1.1
2019-05-03T01:45:46.044Z,0.8
2019-05-03T01:46:23.660Z,0.8
2019-05-03T01:47:34.024Z,0.8
2019-05-03T01:48:46.031Z,1.1
2019-05-03T01:49:23.686Z,1.2
2019-05-03T01:50:34.054Z,0.8
2019-05-03T01:51:46.011Z,0.8
2019-05-03T01:52:58.066Z,1
2019-05-03T01:53:34.019Z,1.1
2019-05-03T01:54:45.969Z,0.6
2019-05-03T01:55:23.429Z,0.4
2019-05-03T01:56:33.989Z,0.8
2019-05-03T01:57:46.042Z,0.9
2019-05-03T01:58:57.980Z,0.8
2019-05-03T01:59:33.962Z,0.8
2019-05-03T02:00:46.007Z,1.1
2019-05-03T02:01:57.951Z,0.8
2019-05-03T02:02:45.946Z,0.7
2019-05-03T02:03:46.036Z,1
2019-05-03T02:04:22.372Z,1.2
2019-05-03T02:04:58.052Z,1.2
2019-05-03T02:06:12.095Z,1
2019-05-03T02:06:45.940Z,1.2
2019-05-03T02:08:10.030Z,1.8
2019-05-03T02:08:46.091Z,1.7
2019-05-03T02:09:57.934Z,1.1
2019-05-03T02:11:12.131Z,1.7
2019-05-03T02:11:45.973Z,1.7
2019-05-03T02:12:58.032Z,1
2019-05-03T02:14:10.010Z,1.6
2019-05-03T02:14:46.061Z,1.8
2019-05-03T02:15:57.994Z,1.3
2019-05-03T02:17:10.048Z,1.7
2019-05-03T02:17:46.028Z,1.9
2019-05-03T02:18:34.029Z,1.8
2019-05-03T02:19:10.071Z,1.6
2019-05-03T02:19:45.953Z,1.3
2019-05-03T02:21:12.084Z,1.3
2019-05-03T02:21:46.021Z,1
2019-05-03T02:22:57.961Z,1.2
2019-05-03T02:24:12.263Z,1.9
2019-05-03T02:24:45.975Z,1.6
2019-05-03T02:26:00.082Z,1.5
2019-05-03T02:27:09.972Z,2.4
2019-05-03T02:27:45.962Z,2.1
2019-05-03T02:28:58.012Z,1.5
2019-05-03T02:30:09.954Z,1.7
2019-05-03T02:30:46.053Z,1.9
2019-05-03T02:31:57.981Z,1.4
2019-05-03T02:33:24.364Z,2.1
2019-05-03T02:33:58.063Z,1.9
2019-05-03T02:35:10.007Z,1.5
2019-05-03T02:35:57.971Z,1.8
2019-05-03T02:36:45.994Z,2.3
2019-05-03T02:37:34.025Z,1.7
2019-05-03T02:38:13.268Z,1.3
2019-05-03T02:38:46.031Z,1.8
2019-05-03T02:40:13.227Z,1.3
2019-05-03T02:40:45.989Z,1.1
2019-05-03T02:42:12.313Z,1.3
2019-05-03T02:43:46.300Z,0.9
2019-05-03T02:44:58.010Z,1
2019-05-03T02:45:36.001Z,1
2019-05-03T02:46:58.042Z,1.5
2019-05-03T02:47:36.585Z,1.6
2019-05-03T02:48:46.673Z,1.5
2019-05-03T02:49:36.191Z,1.4
2019-05-03T02:50:46.162Z,1
2019-05-03T02:51:57.975Z,1
2019-05-03T02:52:58.059Z,0.8
2019-05-03T02:53:36.792Z,0.8
2019-05-03T02:54:10.068Z,0.9
2019-05-03T02:54:47.352Z,0.9
2019-05-03T02:56:25.954Z,1.2
2019-05-03T02:57:10.026Z,0.8
2019-05-03T02:57:47.616Z,0.8
2019-05-03T02:58:58.044Z,0.8
2019-05-03T03:00:10.042Z,0.8
2019-05-03T03:01:36.590Z,0.9
2019-05-03T03:02:10.043Z,0.9
2019-05-03T03:02:58.047Z,1.5
2019-05-03T03:03:46.637Z,1.3
2019-05-03T03:04:22.036Z,1.3
2019-05-03T03:04:57.972Z,1.1
2019-05-03T03:06:10.031Z,1.4
2019-05-03T03:07:21.962Z,1.3
2019-05-03T03:07:57.950Z,1.4
2019-05-03T03:08:37.722Z,1.3
2019-05-03T03:10:46.523Z,1.2
2019-05-03T03:11:21.978Z,0.9
2019-05-03T03:12:22.010Z,1.6
2019-05-03T03:12:57.978Z,1.6
2019-05-03T03:13:37.457Z,1.3
2019-05-03T03:14:46.358Z,1
2019-05-03T03:15:36.947Z,0.8
2019-05-03T03:16:57.954Z,1.2
2019-05-03T03:17:46.612Z,1.1
2019-05-03T03:18:37.317Z,1
2019-05-03T03:19:47.038Z,1.7
2019-05-03T03:20:21.984Z,1.2
2019-05-03T03:21:36.902Z,1
2019-05-03T03:22:46.605Z,0.9
2019-05-03T03:23:21.981Z,0.9
2019-05-03T03:24:36.904Z,1.4
2019-05-03T03:25:47.094Z,1.2
2019-05-03T03:26:47.485Z,1.2
2019-05-03T03:27:36.766Z,1.1
2019-05-03T03:29:09.974Z,1.3
2019-05-03T03:29:46.766Z,0.9
2019-05-03T03:30:22.065Z,0.8
2019-05-03T03:31:38.885Z,1.2
2019-05-03T03:32:39.669Z,1.3
2019-05-03T03:33:10.415Z,1.4
2019-05-03T03:33:48.458Z,1.4
2019-05-03T03:35:20.062Z,1.4
2019-05-03T03:37:09.652Z,0.8
2019-05-03T03:37:10.168Z,0.8
2019-05-03T03:38:10.157Z,1.1
2019-05-03T03:38:46.704Z,1
2019-05-03T03:39:58.021Z,1.4
2019-05-03T03:40:36.568Z,1.5
2019-05-03T03:41:46.162Z,1.2
2019-05-03T03:42:36.763Z,1.2
2019-05-03T03:44:09.974Z,1.1
2019-05-03T03:44:46.307Z,1.5
2019-05-03T03:45:21.983Z,2.2
2019-05-03T03:46:36.584Z,1.7
2019-05-03T03:47:10.028Z,1.6
2019-05-03T03:48:21.967Z,1.3
2019-05-03T03:49:36.493Z,1.8
2019-05-03T03:50:10.022Z,1.9
2019-05-03T03:51:35.955Z,1.1
2019-05-03T03:52:36.720Z,1.2
2019-05-03T03:53:09.951Z,1.2
2019-05-03T03:53:47.405Z,1
2019-05-03T03:54:57.974Z,1
2019-05-03T03:55:35.953Z,1.4
2019-05-03T03:57:08.456Z,1
2019-05-03T03:57:36.506Z,0.9
2019-05-03T03:59:58.130Z,0.9
2019-05-03T04:00:58.065Z,1.9
2019-05-03T04:01:35.874Z,2.2
2019-05-03T04:02:21.983Z,2.2
2019-05-03T04:02:57.966Z,1.9
2019-05-03T04:04:10.024Z,1.8
2019-05-03T04:05:21.990Z,1.5
2019-05-03T04:06:09.978Z,1.6
2019-05-03T04:07:02.301Z,1.3
2019-05-03T04:08:10.029Z,1.5
2019-05-03T04:09:37.398Z,1.2
2019-05-03T04:10:10.028Z,1.1
2019-05-03T04:11:10.011Z,1.4
2019-05-03T04:11:58.022Z,0.9
2019-05-03T04:12:36.046Z,1
2019-05-03T04:13:21.969Z,1.1
2019-05-03T04:14:36.971Z,1.2
2019-05-03T04:15:22.056Z,1.8
2019-05-03T04:16:58.011Z,1
2019-05-03T04:17:36.778Z,1.1
2019-05-03T04:18:09.970Z,1.2
2019-05-03T04:19:22.028Z,1.4
2019-05-03T04:20:10.035Z,1.5
2019-05-03T04:20:58.040Z,1.4
2019-05-03T04:22:09.970Z,1.6
2019-05-03T04:23:36.740Z,1.6
2019-05-03T04:24:10.007Z,1.1
2019-05-03T04:25:22.053Z,1
2019-05-03T04:25:58.045Z,1.2
2019-05-03T04:27:27.650Z,1.6
2019-05-03T04:27:37.185Z,1.9
2019-05-03T04:28:46.287Z,1.2
2019-05-03T04:29:58.065Z,1.7
2019-05-03T04:30:37.330Z,1.5
2019-05-03T04:31:57.987Z,1.1
2019-05-03T04:32:36.792Z,1.1
2019-05-03T04:33:46.033Z,0.8
2019-05-03T04:34:57.937Z,1
2019-05-03T04:35:37.345Z,1.4
2019-05-03T04:36:47.096Z,1.1
2019-05-03T04:37:58.021Z,0.8
2019-05-03T04:38:36.330Z,1.1
2019-05-03T04:39:46.670Z,1.3
2019-05-03T04:40:57.999Z,1.8
2019-05-03T04:41:36.528Z,1.6
2019-05-03T04:42:47.337Z,2.3
2019-05-03T04:43:57.975Z,1.9
2019-05-03T04:44:36.793Z,1.2
2019-05-03T04:45:46.523Z,1
2019-05-03T04:46:59.345Z,1.1
2019-05-03T04:47:36.556Z,0.8
2019-05-03T04:48:45.976Z,1.4
2019-05-03T04:49:58.043Z,1.3
2019-05-03T04:50:37.724Z,1.2
2019-05-03T04:51:47.448Z,1.2
2019-05-03T04:52:57.984Z,1.6
2019-05-03T04:53:46.346Z,1.3
2019-05-03T04:54:58.061Z,1.4
2019-05-03T04:55:47.829Z,1.6
2019-05-03T04:56:57.977Z,1.5
2019-05-03T04:57:50.903Z,1.2
2019-05-03T04:58:46.775Z,1.5
2019-05-03T04:59:57.949Z,1.4
2019-05-03T05:00:36.771Z,1
2019-05-03T05:01:46.918Z,1.1
2019-05-03T05:02:58.053Z,1.3
2019-05-03T05:03:37.016Z,1.4
2019-05-03T05:04:47.240Z,1.1
2019-05-03T05:06:00.514Z,1.4
2019-05-03T05:06:35.946Z,1.7
2019-05-03T05:07:46.731Z,0.9
2019-05-03T05:08:57.981Z,1.7
2019-05-03T05:09:46.583Z,1.9
2019-05-03T05:11:11.373Z,1.5
2019-05-03T05:11:46.784Z,1.3
2019-05-03T05:13:09.976Z,2.4
2019-05-03T05:13:46.606Z,1.8
2019-05-03T05:15:10.029Z,0.9
2019-05-03T05:15:46.906Z,1.3
2019-05-03T05:16:58.021Z,1.5
2019-05-03T05:17:36.374Z,1.4
2019-05-03T05:19:10.009Z,1.2
2019-05-03T05:19:46.012Z,1.1
2019-05-03T05:20:21.966Z,1.2
2019-05-03T05:21:36.273Z,1.2
2019-05-03T05:22:10.012Z,1.2
2019-05-03T05:23:21.945Z,1.4
2019-05-03T05:24:35.431Z,1.9
2019-05-03T05:25:09.953Z,1.5
2019-05-03T05:26:35.984Z,1.9
2019-05-03T05:27:10.016Z,2
2019-05-03T05:27:58.037Z,1.3
2019-05-03T05:28:36.202Z,1.5
2019-05-03T05:29:09.965Z,1.2
2019-05-03T05:29:57.936Z,1.5
2019-05-03T05:30:36.067Z,1.7
2019-05-03T05:31:10.006Z,1.6
2019-05-03T05:32:21.956Z,1.9
2019-05-03T05:33:36.122Z,2.3
2019-05-03T05:34:09.975Z,2.6
2019-05-03T05:35:21.907Z,2.2
2019-05-03T05:36:35.573Z,2.1
2019-05-03T05:37:09.931Z,1.9
2019-05-03T05:37:57.943Z,1.6
2019-05-03T05:38:35.512Z,1.4
2019-05-03T05:39:10.013Z,1.6
2019-05-03T05:40:21.929Z,2
2019-05-03T05:41:09.927Z,3.3
2019-05-03T05:42:21.996Z,2.3
2019-05-03T05:43:36.149Z,2.2
2019-05-03T05:44:09.917Z,1.6
2019-05-03T05:45:21.956Z,1.5
2019-05-03T05:45:59.727Z,2
2019-05-03T05:47:09.973Z,1.4
2019-05-03T05:48:21.927Z,2.1
2019-05-03T05:49:35.905Z,1.5
2019-05-03T05:50:09.968Z,1.3
2019-05-03T05:51:22.008Z,1.9
2019-05-03T05:52:35.441Z,2.2
2019-05-03T05:53:09.925Z,2.1
2019-05-03T05:54:21.971Z,2.3
2019-05-03T05:55:35.284Z,2
2019-05-03T05:56:09.999Z,1.6
2019-05-03T05:57:21.957Z,1.2
2019-05-03T05:58:08.790Z,0.9
2019-05-03T05:59:09.993Z,1.4
2019-05-03T06:00:21.918Z,1.9
2019-05-03T06:01:36.088Z,1.4
2019-05-03T06:02:09.945Z,1.5
2019-05-03T06:03:22.017Z,1.2
2019-05-03T06:04:35.717Z,1.9
2019-05-03T06:05:09.900Z,1.9
2019-05-03T06:06:21.960Z,1.8
2019-05-03T06:07:35.866Z,1.6
2019-05-03T06:08:09.991Z,1.8
2019-05-03T06:08:58.015Z,1.1
2019-05-03T06:09:57.921Z,1.6
2019-05-03T06:10:35.666Z,1.6
2019-05-03T06:11:09.945Z,1.4
2019-05-03T06:12:21.888Z,1.3
2019-05-03T06:13:09.890Z,1.2
2019-05-03T06:13:57.993Z,1.4
2019-05-03T06:15:27.084Z,0.8
2019-05-03T06:15:57.948Z,1
2019-05-03T06:17:09.902Z,1.3
2019-05-03T06:17:57.894Z,0.9
2019-05-03T06:19:21.991Z,1.2
2019-05-03T06:19:57.942Z,1.6
2019-05-03T06:21:09.883Z,1.8
2019-05-03T06:21:48.654Z,1.3
2019-05-03T06:22:57.921Z,1.5
2019-05-03T06:24:09.961Z,2.3
2019-05-03T06:25:21.945Z,1.6
2019-05-03T06:25:58.032Z,1
2019-05-03T06:27:09.924Z,1.7
2019-05-03T06:28:22.129Z,1.9
2019-05-03T06:28:57.976Z,2.2
2019-05-03T06:30:09.921Z,1.5
2019-05-03T06:30:47.639Z,1
2019-05-03T06:31:57.922Z,2.1
2019-05-03T06:33:09.993Z,2.5
2019-05-03T06:34:21.922Z,2.1
2019-05-03T06:35:09.941Z,1.5
2019-05-03T06:36:21.990Z,1.6
2019-05-03T06:36:57.960Z,1.3
2019-05-03T06:38:09.897Z,1.8
2019-05-03T06:39:21.959Z,1.7
2019-05-03T06:40:09.963Z,1.4
2019-05-03T06:41:21.890Z,1.8
2019-05-03T06:41:57.969Z,1.3
2019-05-03T06:43:12.752Z,1.5
2019-05-03T06:43:57.921Z,2.2
2019-05-03T06:45:12.533Z,1.7
2019-05-03T06:45:57.976Z,1.3
2019-05-03T06:47:11.268Z,1.6
2019-05-03T06:47:57.922Z,1.4
2019-05-03T06:49:21.881Z,1.6
2019-05-03T06:49:57.986Z,2.3
2019-05-03T06:51:20.441Z,1.2
2019-05-03T06:51:57.921Z,1.8
2019-05-03T06:53:15.972Z,2.3
2019-05-03T06:53:51.181Z,2.9
2019-05-03T06:54:30.637Z,2.3
2019-05-03T06:55:11.061Z,2.2
2019-05-03T06:56:09.953Z,2.4
2019-05-03T06:57:44.836Z,1.7
2019-05-03T06:58:09.867Z,1.8
2019-05-03T06:59:21.922Z,1.5
2019-05-03T06:59:57.931Z,1.6
2019-05-03T07:01:12.138Z,1.7
2019-05-03T07:02:21.909Z,1.9
2019-05-03T07:02:57.882Z,1.5
2019-05-03T07:04:09.943Z,1.2
2019-05-03T07:05:21.990Z,2.5
2019-05-03T07:06:41.198Z,1.8
2019-05-03T07:06:57.995Z,1.6
2019-05-03T07:07:36.169Z,1.4
2019-05-03T07:08:57.940Z,1
2019-05-03T07:09:35.897Z,1.5
2019-05-03T07:10:46.072Z,2
2019-05-03T07:11:57.901Z,1.5
2019-05-03T07:12:46.254Z,1
2019-05-03T07:13:57.947Z,1.3
2019-05-03T07:14:57.968Z,1.6
2019-05-03T07:15:35.868Z,1.4
2019-05-03T07:16:09.911Z,1.2
2019-05-03T07:17:45.917Z,2.1
2019-05-03T07:18:36.008Z,1.3
2019-05-03T07:19:09.887Z,1.1
2019-05-03T07:19:46.706Z,1.2
2019-05-03T07:20:58.051Z,2.1
2019-05-03T07:21:36.159Z,1.6
2019-05-03T07:22:45.946Z,1.2
2019-05-03T07:23:35.832Z,1.3
2019-05-03T07:24:21.933Z,2.1
2019-05-03T07:24:57.893Z,1.4
2019-05-03T07:25:35.253Z,1.2
2019-05-03T07:26:21.853Z,1.3
2019-05-03T07:27:09.861Z,1.4
2019-05-03T07:27:46.095Z,1.3
2019-05-03T07:28:57.886Z,1.3
2019-05-03T07:29:45.902Z,1.3
2019-05-03T07:30:57.978Z,2.3
2019-05-03T07:31:36.133Z,2
2019-05-03T07:32:21.931Z,1.8
2019-05-03T07:32:57.884Z,2.2
2019-05-03T07:33:45.876Z,2.2
2019-05-03T07:34:57.951Z,1.6
2019-05-03T07:35:36.095Z,2.6
2019-05-03T07:36:36.287Z,2
2019-05-03T07:37:09.906Z,1.9
2019-05-03T07:37:45.916Z,1.7
2019-05-03T07:38:57.933Z,2.4
2019-05-03T07:39:35.765Z,2.8
2019-05-03T07:40:45.904Z,2.5
2019-05-03T07:41:27.491Z,2.4
2019-05-03T07:42:35.530Z,1.9
2019-05-03T07:43:57.841Z,1.5
2019-05-03T07:44:45.874Z,1.3
2019-05-03T07:45:57.951Z,2.1
2019-05-03T07:46:35.738Z,1.7
2019-05-03T07:47:46.036Z,2
2019-05-03T07:48:36.074Z,1.6
2019-05-03T07:49:45.860Z,1.2
2019-05-03T07:50:57.955Z,1.8
2019-05-03T07:51:35.608Z,1.7
2019-05-03T07:53:21.923Z,1
2019-05-03T07:53:57.895Z,1
2019-05-03T07:54:35.709Z,1.3
2019-05-03T07:56:09.875Z,1.9
2019-05-03T07:56:57.862Z,2.1
2019-05-03T07:57:36.361Z,2.2
2019-05-03T07:58:21.959Z,1.8
2019-05-03T07:59:06.843Z,1.9
2019-05-03T07:59:46.327Z,1.8
2019-05-03T08:00:35.162Z,1.5
2019-05-03T08:01:10.875Z,1.4
2019-05-03T08:02:28.013Z,2.5
2019-05-03T08:03:46.005Z,1.5
2019-05-03T08:04:21.883Z,1.7
2019-05-03T08:05:35.787Z,1.5
2019-05-03T08:06:21.967Z,1.5
2019-05-03T08:08:09.838Z,1.3
2019-05-03T08:08:46.319Z,1.2
2019-05-03T08:09:21.924Z,2.2
2019-05-03T08:10:35.356Z,1.6
2019-05-03T08:11:21.877Z,1.5
2019-05-03T08:12:35.706Z,1.7
2019-05-03T08:13:09.864Z,1.5
2019-05-03T08:14:21.928Z,1.8
2019-05-03T08:15:35.608Z,1.8
2019-05-03T08:16:21.887Z,1.8
2019-05-03T08:17:35.480Z,2.3
2019-05-03T08:18:21.916Z,1.2
2019-05-03T08:19:45.896Z,2.1
2019-05-03T08:20:21.876Z,2.1
2019-05-03T08:21:09.868Z,1.4
2019-05-03T08:22:35.299Z,1.9
2019-05-03T08:23:29.270Z,1.5
2019-05-03T08:24:35.450Z,1.6
2019-05-03T08:25:21.885Z,2.2
2019-05-03T08:26:35.851Z,1.5
2019-05-03T08:27:09.931Z,1.9
2019-05-03T08:28:21.839Z,4
2019-05-03T08:29:35.979Z,4.2
2019-05-03T08:30:09.927Z,1.8
2019-05-03T08:31:27.002Z,2.8
2019-05-03T08:32:36.067Z,2.8
2019-05-03T08:33:21.881Z,2.5
2019-05-03T08:34:35.732Z,2.7
2019-05-03T08:35:09.898Z,3
2019-05-03T08:36:21.849Z,1.7
2019-05-03T08:37:46.102Z,2
2019-05-03T08:38:21.911Z,1.8
2019-05-03T08:39:36.474Z,1.8
2019-05-03T08:40:09.928Z,1.7
2019-05-03T08:41:35.934Z,2.2
2019-05-03T08:42:09.887Z,2.1
2019-05-03T08:43:21.916Z,1.4
2019-05-03T08:44:36.095Z,1.2
2019-05-03T08:45:21.855Z,1
2019-05-03T08:46:36.293Z,1.2
2019-05-03T08:47:09.892Z,1.8
2019-05-03T08:48:21.843Z,2
2019-05-03T08:49:35.623Z,2
2019-05-03T08:50:09.854Z,1.8
2019-05-03T08:51:21.910Z,1.7
2019-05-03T08:52:35.643Z,1.7
2019-05-03T08:53:09.821Z,1.9
2019-05-03T08:54:21.914Z,1.4
2019-05-03T08:55:35.958Z,1.8
2019-05-03T08:56:09.904Z,1.4
2019-05-03T08:57:36.233Z,0.9
2019-05-03T08:58:09.844Z,1.2
2019-05-03T08:59:35.975Z,2
2019-05-03T09:00:36.067Z,1.9
2019-05-03T09:01:09.831Z,2
2019-05-03T09:02:21.891Z,1.9
2019-05-03T09:03:39.034Z,1.4
2019-05-03T09:04:58.013Z,1.6
2019-05-03T09:05:36.738Z,2.2
2019-05-03T09:06:09.832Z,2.1
2019-05-03T09:07:21.931Z,2.1
2019-05-03T09:08:36.149Z,2.4
2019-05-03T09:09:09.800Z,2.1
2019-05-03T09:10:21.868Z,1.8
2019-05-03T09:11:37.582Z,1.8
2019-05-03T09:12:09.892Z,1.4
2019-05-03T09:13:21.828Z,1.3
2019-05-03T09:14:09.834Z,1.1
2019-05-03T09:14:49.166Z,1.1
2019-05-03T09:15:35.862Z,1.6
2019-05-03T09:16:09.995Z,1.6
2019-05-03T09:17:21.813Z,1.8
2019-05-03T09:18:35.731Z,2.4
2019-05-03T09:19:09.857Z,1.4
2019-05-03T09:20:09.900Z,1.6
2019-05-03T09:20:45.871Z,1.9
2019-05-03T09:21:21.831Z,1.7
2019-05-03T09:22:35.665Z,1.7
2019-05-03T09:23:26.637Z,2.3
2019-05-03T09:24:09.894Z,1.5
2019-05-03T09:25:09.790Z,2.3
2019-05-03T09:26:09.836Z,2.3
2019-05-03T09:26:57.808Z,2.2
2019-05-03T09:27:35.208Z,2.5
2019-05-03T09:28:09.905Z,2.7
2019-05-03T09:29:47.060Z,2
2019-05-03T09:30:21.832Z,2.2
2019-05-03T09:31:09.834Z,2
2019-05-03T09:31:45.802Z,2.3
2019-05-03T09:32:57.881Z,1.8
2019-05-03T09:33:36.192Z,1.8
2019-05-03T09:34:45.908Z,2.9
2019-05-03T09:35:36.535Z,2
2019-05-03T09:36:35.274Z,1.7
2019-05-03T09:37:45.881Z,1.3
2019-05-03T09:39:09.854Z,0.9
2019-05-03T09:39:45.802Z,0.8
2019-05-03T09:40:57.850Z,1.1
2019-05-03T09:41:35.551Z,1.1
2019-05-03T09:42:45.894Z,1.5
2019-05-03T09:43:57.862Z,1.4
2019-05-03T09:44:35.707Z,1.2
2019-05-03T09:45:46.596Z,1.8
2019-05-03T09:46:27.209Z,2
2019-05-03T09:47:35.862Z,2.7
2019-05-03T09:48:46.434Z,1.8
2019-05-03T09:49:57.874Z,2.1
2019-05-03T09:50:36.091Z,2.3
2019-05-03T09:51:45.770Z,1.4
2019-05-03T09:52:57.848Z,1.9
2019-05-03T09:53:35.864Z,1.8
2019-05-03T09:54:46.238Z,1.7
2019-05-03T09:55:57.804Z,1.6
2019-05-03T09:56:35.410Z,1.6
2019-05-03T09:57:45.848Z,1.5
2019-05-03T09:58:57.783Z,3.8
2019-05-03T10:00:00.689Z,5
2019-05-03T10:00:57.841Z,5.1
2019-05-03T10:01:35.525Z,3.6
2019-05-03T10:02:45.882Z,4
2019-05-03T10:03:57.783Z,2.9
2019-05-03T10:05:09.860Z,1.5
2019-05-03T10:05:46.662Z,1.4
2019-05-03T10:07:09.810Z,1.4
2019-05-03T10:07:57.806Z,1.6
2019-05-03T10:08:36.239Z,1.4
2019-05-03T10:09:46.002Z,1.3
2019-05-03T10:10:57.794Z,1.8
2019-05-03T10:11:47.039Z,1
2019-05-03T10:12:57.848Z,1.6
2019-05-03T10:13:36.397Z,2.4
2019-05-03T10:14:46.056Z,3.3
2019-05-03T10:15:57.806Z,2.5
2019-05-03T10:16:35.845Z,1.6
2019-05-03T10:17:46.762Z,3.5
2019-05-03T10:18:57.866Z,4
2019-05-03T10:19:41.055Z,2.7
2019-05-03T10:20:45.768Z,1.8
2019-05-03T10:21:57.832Z,1.3
2019-05-03T10:22:35.616Z,0.9
2019-05-03T10:23:21.806Z,1.1
2019-05-03T10:23:57.758Z,1.1
2019-05-03T10:24:35.829Z,1.4
2019-05-03T10:25:46.332Z,1.4
2019-05-03T10:26:57.848Z,1.4
2019-05-03T10:27:35.497Z,1.4
2019-05-03T10:28:45.788Z,1.3
2019-05-03T10:30:17.565Z,1.4
2019-05-03T10:30:45.905Z,1
2019-05-03T10:31:57.775Z,1.5
2019-05-03T10:32:45.779Z,1.1
2019-05-03T10:33:36.293Z,0.8
2019-05-03T10:34:45.819Z,0.9
2019-05-03T10:35:57.773Z,0.8
2019-05-03T10:36:45.758Z,0.8
2019-05-03T10:37:57.819Z,1.7
2019-05-03T10:39:09.744Z,1
2019-05-03T10:39:46.345Z,1.1
2019-05-03T10:40:37.087Z,0.9
2019-05-03T10:41:46.198Z,0.8
2019-05-03T10:42:35.989Z,0.8
2019-05-03T10:43:46.186Z,1.7
2019-05-03T10:44:57.764Z,1.8
2019-05-03T10:45:36.186Z,1.9
2019-05-03T10:46:46.109Z,1.8
2019-05-03T10:47:57.731Z,1.7
2019-05-03T10:48:36.299Z,1.8
2019-05-03T10:49:46.565Z,2.2
2019-05-03T10:50:57.846Z,2.3
2019-05-03T10:51:36.184Z,1.8
2019-05-03T10:52:21.795Z,1.5
2019-05-03T10:52:57.760Z,1.9
2019-05-03T10:53:35.446Z,1.8
2019-05-03T10:54:46.727Z,2.4
2019-05-03T10:55:57.753Z,2.4
2019-05-03T10:56:37.257Z,1.9
2019-05-03T10:57:45.799Z,2.2
2019-05-03T10:58:57.834Z,2.3
2019-05-03T10:59:36.043Z,2.1
2019-05-03T11:00:45.897Z,1.8
2019-05-03T11:01:57.792Z,1.4
2019-05-03T11:02:36.716Z,1.3
2019-05-03T11:03:45.982Z,2.2
2019-05-03T11:04:57.754Z,2.1
2019-05-03T11:05:35.584Z,2.1
2019-05-03T11:06:57.863Z,1.2
2019-05-03T11:07:35.349Z,1.8
2019-05-03T11:08:45.969Z,1.2
2019-05-03T11:09:57.789Z,1.5
2019-05-03T11:11:09.841Z,1.6
2019-05-03T11:11:57.840Z,1.4
2019-05-03T11:12:35.544Z,1.1
2019-05-03T11:13:45.733Z,1.1
2019-05-03T11:15:09.874Z,1.4
2019-05-03T11:16:09.737Z,1.7
2019-05-03T11:16:46.891Z,1.4
2019-05-03T11:17:21.791Z,1.5
2019-05-03T11:18:35.374Z,1.8
2019-05-03T11:19:09.814Z,1.2
2019-05-03T11:20:34.801Z,1.5
2019-05-03T11:21:35.663Z,2
2019-05-03T11:22:09.800Z,2
2019-05-03T11:23:21.741Z,2.3
2019-05-03T11:24:35.765Z,1.5
2019-05-03T11:25:09.803Z,1.2
2019-05-03T11:25:57.780Z,1.3
2019-05-03T11:26:35.891Z,1.5
2019-05-03T11:27:09.812Z,1.5
2019-05-03T11:28:21.768Z,2.2
2019-05-03T11:29:01.352Z,1.7
2019-05-03T11:30:10.571Z,1.3
2019-05-03T11:31:04.858Z,1.6
2019-05-03T11:32:36.003Z,2.6
2019-05-03T11:33:09.763Z,2.2
2019-05-03T11:33:57.797Z,1.1
2019-05-03T11:34:36.144Z,1
2019-05-03T11:35:12.641Z,0.8
2019-05-03T11:35:57.812Z,0.8
2019-05-03T11:36:35.611Z,0.9
2019-05-03T11:37:09.759Z,0.9
2019-05-03T11:38:21.912Z,1.1
2019-05-03T11:39:35.218Z,1.4
2019-05-03T11:40:09.735Z,1.6
2019-05-03T11:41:35.693Z,1.4
2019-05-03T11:42:35.982Z,1.7
2019-05-03T11:43:09.802Z,1.8
2019-05-03T11:44:21.743Z,1.2
2019-05-03T11:45:36.075Z,1.3
2019-05-03T11:46:09.771Z,1.7
2019-05-03T11:46:57.816Z,2
2019-05-03T11:47:35.625Z,2
2019-05-03T11:48:09.704Z,2.2
2019-05-03T11:49:21.759Z,2.2
2019-05-03T11:50:35.618Z,3.7
2019-05-03T11:51:09.794Z,3
2019-05-03T11:52:21.727Z,3.8
2019-05-03T11:53:36.147Z,2.4
2019-05-03T11:54:09.759Z,1.4
2019-05-03T11:55:21.800Z,1.7
2019-05-03T11:56:36.234Z,2
2019-05-03T11:57:21.773Z,1.5
2019-05-03T11:58:35.407Z,0.8
2019-05-03T11:59:09.868Z,1
2019-05-03T12:00:21.731Z,1.4
2019-05-03T12:01:20.656Z,1.8
2019-05-03T12:02:09.774Z,2.5
2019-05-03T12:03:21.801Z,2.2
2019-05-03T12:04:35.893Z,3.9
2019-05-03T12:05:09.729Z,2.7
2019-05-03T12:06:21.771Z,3.8
2019-05-03T12:07:40.831Z,3
2019-05-03T12:09:33.767Z,2.2
2019-05-03T12:11:00.693Z,1.3
2019-05-03T12:11:02.102Z,1.7
2019-05-03T12:12:35.995Z,2
2019-05-03T12:13:09.729Z,1.6
2019-05-03T12:14:21.769Z,1.1
2019-05-03T12:15:36.062Z,2.1
2019-05-03T12:17:17.745Z,2.1
2019-05-03T12:17:28.509Z,2
2019-05-03T12:18:55.413Z,1.6
2019-05-03T12:20:30.414Z,1.7
2019-05-03T12:21:40.538Z,1.1
2019-05-03T12:22:49.870Z,1.9
2019-05-03T12:24:00.500Z,1.3
2019-05-03T12:25:13.726Z,2
2019-05-03T12:27:35.721Z,1.7
2019-05-03T12:28:09.791Z,1.6
2019-05-03T12:29:21.715Z,1.3
2019-05-03T12:30:36.253Z,1.2
2019-05-03T12:31:40.949Z,1.4
2019-05-03T12:32:21.688Z,1.4
2019-05-03T12:33:36.194Z,2.8
2019-05-03T12:34:09.700Z,2.2
2019-05-03T12:35:21.767Z,3.4
2019-05-03T12:36:39.825Z,2.1
2019-05-03T12:38:21.724Z,2
2019-05-03T12:39:36.751Z,1.2
2019-05-03T12:40:09.773Z,1.5
2019-05-03T12:41:21.691Z,1.6
2019-05-03T12:42:36.209Z,1.7
2019-05-03T12:43:09.714Z,1.1
2019-05-03T12:44:21.683Z,1.4
2019-05-03T12:45:36.210Z,2.4
2019-05-03T12:46:09.699Z,1.9
2019-05-03T12:47:25.376Z,1.1
2019-05-03T12:48:36.013Z,1.8
2019-05-03T12:49:09.791Z,1.1
2019-05-03T12:50:21.730Z,2.4
2019-05-03T12:50:59.472Z,2.1
2019-05-03T12:52:13.058Z,1.4
2019-05-03T12:52:51.444Z,1.8
2019-05-03T12:54:36.480Z,1.1
2019-05-03T12:55:09.709Z,1.3
2019-05-03T12:56:35.987Z,0.9
2019-05-03T12:57:35.291Z,1.2
2019-05-03T12:58:09.705Z,0.9
2019-05-03T12:59:21.754Z,1
2019-05-03T13:00:33.678Z,1.1
2019-05-03T13:01:09.798Z,1.3
2019-05-03T13:02:21.722Z,1
2019-05-03T13:03:33.748Z,1.3
2019-05-03T13:04:09.751Z,1.8
2019-05-03T13:05:21.673Z,2.1
2019-05-03T13:06:35.463Z,1.8
2019-05-03T13:07:09.703Z,1.6
2019-05-03T13:08:21.777Z,1.9
2019-05-03T13:09:35.978Z,1.7
2019-05-03T13:10:09.681Z,1.6
2019-05-03T13:11:21.709Z,1.8
2019-05-03T13:11:59.907Z,1.7
2019-05-03T13:13:09.767Z,1.4
2019-05-03T13:14:21.709Z,1.2
2019-05-03T13:15:36.027Z,1.3
2019-05-03T13:16:09.720Z,1.3
2019-05-03T13:17:21.676Z,1.4
2019-05-03T13:18:09.672Z,1.4
2019-05-03T13:19:21.700Z,1.5
2019-05-03T13:20:36.238Z,1.1
2019-05-03T13:21:09.755Z,1.1
2019-05-03T13:22:21.675Z,1.1
2019-05-03T13:23:36.503Z,1.8
2019-05-03T13:24:26.444Z,1.1